Time;durP1;ratioP1;P1;durP2;ratioP2;P2;SDS_P1;SDS_P2;PMS_P1;PMS_P2;Temp;Humidity;BMP_temperature;BMP_pressure;BME280_temperature;BME280_humidity;BME280_pressure;Samples;Min_cycle;Max_cycle;Signal;HPM_P1;HPM_P2
2023/06/29 00:01:04;;;;;;;4.60;4.40;;;;;;;11.82;100.00;97056.22;4998191;28;20267;-71
2023/06/29 00:03:32;;;;;;;4.90;4.10;;;;;;;11.94;100.00;97083.88;5001651;28;20207;-70
2023/06/29 00:06:01;;;;;;;3.47;3.10;;;;;;;11.94;100.00;97078.56;4995624;28;20204;-73
2023/06/29 00:08:34;;;;;;;4.07;3.87;;;;;;;11.83;100.00;97079.09;4992721;28;20624;-70
2023/06/29 00:11:02;;;;;;;4.20;4.00;;;;;;;11.84;100.00;97075.44;4990863;28;20224;-71
2023/06/29 00:13:30;;;;;;;4.17;3.87;;;;;;;11.81;100.00;97076.63;4993794;28;20213;-71
2023/06/29 00:15:58;;;;;;;4.30;4.10;;;;;;;11.77;100.00;97072.72;4998175;28;20209;-70
2023/06/29 00:18:28;;;;;;;4.17;3.87;;;;;;;11.76;100.00;97067.63;4998290;28;20209;-68
2023/06/29 00:20:56;;;;;;;4.57;4.27;;;;;;;11.77;100.00;97072.72;4996139;28;20302;-69
2023/06/29 00:23:25;;;;;;;4.53;4.17;;;;;;;11.72;100.00;97070.66;4991044;28;20805;-70
2023/06/29 00:25:55;;;;;;;5.23;4.83;;;;;;;11.70;100.00;97075.31;4990753;28;20201;-73
2023/06/29 00:28:23;;;;;;;4.60;4.17;;;;;;;11.71;100.00;97078.81;4995463;28;20205;-70
2023/06/29 00:30:50;;;;;;;4.60;4.33;;;;;;;11.68;100.00;97072.06;4993664;28;20268;-70
2023/06/29 00:33:18;;;;;;;5.23;4.83;;;;;;;11.64;100.00;97062.03;4997784;28;20233;-69
2023/06/29 00:35:46;;;;;;;4.33;4.03;;;;;;;11.68;100.00;97074.69;4998976;28;20296;-70
2023/06/29 00:38:13;;;;;;;4.40;4.00;;;;;;;11.70;100.00;97058.59;4990989;28;20282;-71
2023/06/29 00:40:42;;;;;;;4.70;4.40;;;;;;;11.72;100.00;97067.19;4992175;28;20264;-69
2023/06/29 00:43:10;;;;;;;4.70;4.30;;;;;;;11.76;100.00;97067.63;4997261;28;21391;-71
2023/06/29 00:45:37;;;;;;;5.27;4.80;;;;;;;11.73;100.00;97063.50;4990522;28;20870;-71
2023/06/29 00:48:05;;;;;;;5.37;4.97;;;;;;;11.68;100.00;97060.63;4998655;28;20661;-69
2023/06/29 00:50:33;;;;;;;4.70;4.30;;;;;;;11.62;100.00;97067.53;4997862;28;20915;-68
2023/06/29 00:53:01;;;;;;;5.20;4.80;;;;;;;11.54;100.00;97065.81;4994874;28;20271;-70
2023/06/29 00:55:29;;;;;;;4.53;4.23;;;;;;;11.51;100.00;97060.09;4998282;28;20209;-71
2023/06/29 00:57:58;;;;;;;4.83;4.53;;;;;;;11.47;100.00;97062.31;4984951;28;20312;-71
2023/06/29 01:00:25;;;;;;;5.00;4.70;;;;;;;11.45;100.00;97061.69;4995650;28;20218;-72
2023/06/29 01:02:53;;;;;;;4.80;4.40;;;;;;;11.44;100.00;97066.19;4998254;28;20315;-70
2023/06/29 01:05:21;;;;;;;4.87;4.53;;;;;;;11.34;100.00;97055.06;4995848;28;20205;-71
2023/06/29 01:07:53;;;;;;;4.90;4.50;;;;;;;11.35;100.00;97055.91;4989169;28;20686;-72
2023/06/29 01:10:25;;;;;;;5.30;5.00;;;;;;;11.34;100.00;97055.06;4995827;28;20224;-70
2023/06/29 01:12:54;;;;;;;5.37;4.87;;;;;;;11.28;100.00;97058.47;4996527;28;20791;-70
2023/06/29 01:15:23;;;;;;;4.50;4.30;;;;;;;11.25;100.00;97053.56;4991970;28;20308;-71
2023/06/29 01:17:53;;;;;;;5.30;4.90;;;;;;;11.16;100.00;97052.88;4996016;28;20209;-70
2023/06/29 01:20:20;;;;;;;5.50;5.10;;;;;;;11.21;100.00;97058.44;4998102;28;20252;-71
2023/06/29 01:22:56;;;;;;;5.23;4.87;;;;;;;11.21;100.00;97060.25;4998971;28;20225;-71
2023/06/29 01:25:26;;;;;;;5.53;5.23;;;;;;;11.17;100.00;97059.81;4993445;28;20208;-70
2023/06/29 01:27:54;;;;;;;4.90;4.60;;;;;;;11.17;100.00;97061.66;4989717;28;20771;-71
2023/06/29 01:30:23;;;;;;;5.50;4.67;;;;;;;11.07;100.00;97054.84;5000076;28;20249;-70
2023/06/29 01:32:50;;;;;;;4.73;4.53;;;;;;;11.03;100.00;97048.28;4997705;28;20220;-70
2023/06/29 01:35:18;;;;;;;4.53;4.30;;;;;;;10.99;100.00;97055.00;4996643;28;20252;-72
2023/06/29 01:37:51;;;;;;;4.77;4.37;;;;;;;10.98;100.00;97046.19;4990793;28;20239;-70
2023/06/29 01:40:22;;;;;;;4.90;4.60;;;;;;;10.92;100.00;97052.25;4991603;28;20854;-71
2023/06/29 01:42:51;;;;;;;4.97;4.67;;;;;;;10.89;100.00;97057.94;4990549;28;20760;-71
2023/06/29 01:45:20;;;;;;;4.53;4.23;;;;;;;10.84;100.00;97053.19;4997963;28;20243;-70
2023/06/29 01:47:50;;;;;;;5.10;4.70;;;;;;;10.80;100.00;97048.50;4996745;28;20233;-72
2023/06/29 01:50:18;;;;;;;4.90;4.60;;;;;;;10.84;100.00;97063.00;4992168;28;20221;-71
2023/06/29 01:52:46;;;;;;;5.37;4.97;;;;;;;10.81;100.00;97056.22;4994806;28;20303;-71
2023/06/29 01:55:13;;;;;;;5.60;5.17;;;;;;;10.80;100.00;97059.09;4994642;28;20676;-71
2023/06/29 01:57:41;;;;;;;4.70;4.30;;;;;;;10.77;100.00;97054.13;4988947;28;20884;-71
2023/06/29 02:00:12;;;;;;;5.60;5.17;;;;;;;10.68;100.00;97048.97;4996009;28;20237;-72
2023/06/29 02:02:39;;;;;;;4.77;4.50;;;;;;;10.72;100.00;97046.78;4995885;28;20192;-72
2023/06/29 02:05:08;;;;;;;5.70;5.30;;;;;;;10.73;100.00;97055.53;4994473;28;20213;-74
2023/06/29 02:07:36;;;;;;;5.17;4.87;;;;;;;10.67;100.00;97065.88;4990001;28;20230;-72
2023/06/29 02:10:04;;;;;;;5.23;4.93;;;;;;;10.67;100.00;97049.16;4992854;28;20668;-74
2023/06/29 02:12:33;;;;;;;5.50;5.10;;;;;;;10.66;100.00;97056.28;4993377;28;20224;-71
2023/06/29 02:15:01;;;;;;;6.00;5.60;;;;;;;10.62;100.00;97059.50;4985541;28;20209;-73
2023/06/29 02:17:30;;;;;;;5.83;5.43;;;;;;;10.61;100.00;97058.69;4995605;28;20209;-72
2023/06/29 02:19:58;;;;;;;5.70;5.30;;;;;;;10.55;100.00;97062.88;4995869;28;20221;-72
2023/06/29 02:22:25;;;;;;;6.23;5.77;;;;;;;10.58;100.00;97064.34;4988634;28;20678;-70
2023/06/29 02:24:53;;;;;;;6.93;6.43;;;;;;;10.52;100.00;97065.09;4984698;28;20213;-72
2023/06/29 02:27:20;;;;;;;6.40;5.80;;;;;;;10.51;100.00;97061.63;4992773;28;20292;-71
2023/06/29 02:29:48;;;;;;;6.03;5.63;;;;;;;10.45;100.00;97064.22;4993695;28;20300;-73
2023/06/29 02:32:16;;;;;;;5.73;5.37;;;;;;;10.45;100.00;97066.84;4993979;28;20279;-73
2023/06/29 02:34:44;;;;;;;6.20;5.70;;;;;;;10.42;100.00;97057.44;4998204;28;20201;-71
2023/06/29 02:37:12;;;;;;;5.40;5.10;;;;;;;10.34;100.00;97044.28;4989820;28;20711;-72
2023/06/29 02:39:40;;;;;;;6.10;5.60;;;;;;;10.20;100.00;97049.41;4990667;28;20856;-72
2023/06/29 02:42:07;;;;;;;5.17;4.87;;;;;;;10.10;100.00;97041.78;4985494;28;20248;-71
2023/06/29 02:44:35;;;;;;;6.03;5.43;;;;;;;10.04;100.00;97046.97;4996758;28;20209;-72
2023/06/29 02:47:02;;;;;;;6.10;5.70;;;;;;;10.05;100.00;97035.38;4994439;28;20667;-71
2023/06/29 02:49:30;;;;;;;5.50;5.10;;;;;;;9.90;100.00;97017.69;4993527;28;20298;-72
2023/06/29 02:51:59;;;;;;;5.60;5.20;;;;;;;9.94;100.00;97044.59;4988838;28;20647;-73
2023/06/29 02:54:27;;;;;;;6.13;5.63;;;;;;;9.88;100.00;97050.63;4988409;28;20311;-73
2023/06/29 02:56:54;;;;;;;6.07;5.60;;;;;;;9.80;100.00;97054.16;4992120;28;20198;-72
2023/06/29 02:59:22;;;;;;;6.83;6.30;;;;;;;9.77;100.00;97060.66;4994168;28;20239;-74
2023/06/29 03:01:50;;;;;;;6.00;5.60;;;;;;;9.69;100.00;97047.53;4995048;28;20628;-71
2023/06/29 03:04:17;;;;;;;5.87;5.40;;;;;;;9.63;100.00;97043.78;4993940;28;20300;-72
2023/06/29 03:06:45;;;;;;;6.47;5.97;;;;;;;9.58;100.00;97040.03;4991559;28;20692;-72
2023/06/29 03:09:14;;;;;;;5.87;5.57;;;;;;;9.62;100.00;97051.88;4991219;28;20620;-70
2023/06/29 03:11:41;;;;;;;6.47;5.87;;;;;;;9.65;100.00;97051.50;4986652;28;20209;-72
2023/06/29 03:14:09;;;;;;;6.03;5.67;;;;;;;9.68;100.00;97051.97;4993193;28;20334;-71
2023/06/29 03:16:36;;;;;;;5.93;5.57;;;;;;;9.63;100.00;97045.59;4996669;28;20268;-72
2023/06/29 03:19:04;;;;;;;6.23;5.70;;;;;;;9.63;100.00;97043.78;4996736;28;20885;-72
2023/06/29 03:21:32;;;;;;;5.87;5.50;;;;;;;9.54;100.00;97039.56;4992834;28;20291;-71
2023/06/29 03:24:00;;;;;;;5.80;5.50;;;;;;;9.63;100.00;97048.22;4994135;28;20766;-69
2023/06/29 03:26:28;;;;;;;6.30;5.80;;;;;;;9.66;100.00;97053.16;4993881;28;20296;-68
2023/06/29 03:28:56;;;;;;;5.97;5.57;;;;;;;9.56;100.00;97032.28;4993470;28;20463;-68
2023/06/29 03:31:24;;;;;;;5.70;5.40;;;;;;;9.69;100.00;97052.81;5001688;28;20613;-69
2023/06/29 03:33:51;;;;;;;5.90;5.50;;;;;;;9.76;100.00;97053.72;4996964;28;20220;-68
2023/06/29 03:36:19;;;;;;;5.60;5.30;;;;;;;9.75;100.00;97045.97;5000135;28;20283;-68
2023/06/29 03:38:47;;;;;;;6.10;5.70;;;;;;;9.79;100.00;97048.06;4991642;28;20236;-68
2023/06/29 03:41:15;;;;;;;6.30;5.57;;;;;;;9.85;100.00;97046.53;4991161;28;20232;-70
2023/06/29 03:43:44;;;;;;;6.20;5.80;;;;;;;9.91;100.00;97044.97;5001019;28;20287;-67
2023/06/29 03:46:11;;;;;;;6.33;5.67;;;;;;;9.95;100.00;97047.06;4998964;28;20232;-67
2023/06/29 03:48:39;;;;;;;6.43;5.80;;;;;;;9.93;100.00;97048.25;4995257;28;20883;-69
2023/06/29 03:51:07;;;;;;;6.60;6.00;;;;;;;9.98;100.00;97040.56;4992170;28;20612;-68
2023/06/29 03:53:34;;;;;;;6.47;6.07;;;;;;;10.02;100.00;97039.19;5000800;28;20275;-67
2023/06/29 03:56:02;;;;;;;6.63;6.07;;;;;;;10.09;100.00;97034.84;4993290;28;20639;-68
2023/06/29 03:58:29;;;;;;;5.63;5.20;;;;;;;10.17;100.00;97041.03;4998507;28;20233;-69
2023/06/29 04:00:58;;;;;;;5.93;5.57;;;;;;;10.29;100.00;97036.88;4998961;28;20275;-69
2023/06/29 04:03:26;;;;;;;7.40;6.90;;;;;;;10.38;100.00;97032.31;4996828;28;20205;-67
2023/06/29 04:05:54;;;;;;;6.90;6.40;;;;;;;10.47;100.00;97033.06;4991394;28;20220;-68
2023/06/29 04:08:21;;;;;;;6.90;6.40;;;;;;;10.63;100.00;97032.00;4996483;28;20686;-68
2023/06/29 04:10:49;;;;;;;6.77;6.37;;;;;;;10.71;100.00;97034.53;4995705;28;20224;-68
2023/06/29 04:13:17;;;;;;;6.50;6.10;;;;;;;10.82;100.00;97036.66;4996744;28;20205;-69
2023/06/29 04:15:44;;;;;;;7.13;6.63;;;;;;;10.96;100.00;97036.78;4999374;28;20278;-67
2023/06/29 04:18:13;;;;;;;7.33;6.73;;;;;;;11.08;100.00;97039.75;4999585;28;21086;-70
2023/06/29 04:20:41;;;;;;;8.27;7.50;;;;;;;11.19;100.00;97033.97;4996845;28;20321;-69
2023/06/29 04:23:11;;;;;;;7.43;6.93;;;;;;;11.32;100.00;97041.16;4993255;28;20379;-69
2023/06/29 04:25:42;;;;;;;7.77;7.23;;;;;;;11.42;100.00;97030.22;4994663;28;20203;-70
2023/06/29 04:28:11;;;;;;;7.07;6.47;;;;;;;11.58;100.00;97029.97;4993432;28;20209;-68
2023/06/29 04:30:40;;;;;;;7.40;6.90;;;;;;;11.69;100.00;97022.47;4995927;28;20225;-68
2023/06/29 04:33:10;;;;;;;7.03;6.53;;;;;;;11.74;100.00;97028.00;4999512;28;20216;-68
2023/06/29 04:35:40;;;;;;;8.43;7.73;;;;;;;11.88;100.00;97026.25;4991432;28;20202;-65
2023/06/29 04:38:09;;;;;;;6.93;6.43;;;;;;;11.99;100.00;97019.56;4995875;28;20658;-68
2023/06/29 04:40:37;;;;;;;7.47;6.90;;;;;;;12.15;100.00;97024.56;4994520;28;20271;-67
2023/06/29 04:43:06;;;;;;;6.87;6.37;;;;;;;12.33;100.00;97022.38;4992404;28;20279;-70
2023/06/29 04:45:34;;;;;;;6.87;6.47;;;;;;;12.42;100.00;97024.66;5001291;28;20205;-68
2023/06/29 04:48:02;;;;;;;6.83;6.43;;;;;;;12.53;100.00;97020.63;4995554;28;20253;-68
2023/06/29 04:50:35;;;;;;;6.97;6.47;;;;;;;12.58;100.00;97025.31;4994265;28;20252;-68
2023/06/29 04:53:09;;;;;;;6.53;6.03;;;;;;;12.70;100.00;97021.06;4994969;28;20216;-67
2023/06/29 04:55:37;;;;;;;6.43;5.93;;;;;;;12.89;100.00;97023.94;4996148;28;20225;-68
2023/06/29 04:58:06;;;;;;;6.77;6.10;;;;;;;12.96;100.00;97031.94;4986852;28;20259;-68
2023/06/29 05:00:33;;;;;;;6.43;5.80;;;;;;;13.19;100.00;97031.53;5001099;28;20290;-69
2023/06/29 05:03:01;;;;;;;6.40;5.93;;;;;;;13.32;100.00;97031.53;4991235;28;20213;-69
2023/06/29 05:05:29;;;;;;;6.27;5.80;;;;;;;13.53;100.00;97024.41;4992609;28;20203;-68
2023/06/29 05:07:57;;;;;;;6.63;6.20;;;;;;;13.70;100.00;97030.09;4985433;28;20229;-68
2023/06/29 05:10:26;;;;;;;5.83;5.43;;;;;;;13.85;100.00;97029.88;4994192;28;20310;-69
2023/06/29 05:12:54;;;;;;;6.10;5.70;;;;;;;13.99;100.00;97022.63;4988230;28;20233;-69
2023/06/29 05:15:22;;;;;;;6.50;5.87;;;;;;;14.09;100.00;97010.75;4996674;28;20817;-73
2023/06/29 05:17:49;;;;;;;5.93;5.53;;;;;;;14.24;100.00;97019.28;4998295;28;20619;-71
2023/06/29 05:20:18;;;;;;;7.10;5.97;;;;;;;14.43;100.00;97016.75;4994594;28;20310;-71
2023/06/29 05:22:45;;;;;;;6.23;5.73;;;;;;;14.64;100.00;97023.59;4992262;28;20214;-67
2023/06/29 05:25:14;;;;;;;6.17;5.70;;;;;;;14.76;100.00;97023.75;4981786;28;20239;-70
2023/06/29 05:27:43;;;;;;;5.47;5.17;;;;;;;14.84;100.00;97015.50;4992202;28;20193;-69
2023/06/29 05:30:12;;;;;;;6.20;5.60;;;;;;;14.90;100.00;97017.31;4995102;28;20879;-69
2023/06/29 05:32:40;;;;;;;6.13;5.73;;;;;;;14.66;100.00;97021.53;4995536;28;20275;-68
2023/06/29 05:35:08;;;;;;;6.40;5.90;;;;;;;14.60;100.00;97023.22;4993630;28;20225;-69
2023/06/29 05:37:35;;;;;;;6.47;6.07;;;;;;;14.74;100.00;97023.97;4989087;28;20217;-70
2023/06/29 05:40:04;;;;;;;5.87;5.20;;;;;;;15.13;100.00;97023.91;4988490;28;20225;-72
2023/06/29 05:42:32;;;;;;;6.20;5.70;;;;;;;15.23;100.00;97026.09;4984675;28;20303;-69
2023/06/29 05:45:01;;;;;;;6.23;5.70;;;;;;;15.52;100.00;97022.97;4996044;28;20576;-70
2023/06/29 05:47:29;;;;;;;6.13;5.73;;;;;;;15.33;100.00;97015.72;4999515;28;20235;-70
2023/06/29 05:49:56;;;;;;;6.10;5.70;;;;;;;15.72;100.00;97018.28;4979526;28;21024;-70
2023/06/29 05:52:24;;;;;;;5.73;5.33;;;;;;;15.88;100.00;97016.91;4994532;28;20209;-69
2023/06/29 05:54:52;;;;;;;5.67;5.37;;;;;;;16.02;100.00;97012.22;4994725;28;20349;-73
2023/06/29 05:57:19;;;;;;;5.80;5.30;;;;;;;16.01;100.00;97023.13;4987640;28;21615;-71
2023/06/29 05:59:47;;;;;;;5.30;4.90;;;;;;;15.87;100.00;97001.88;4989419;28;20264;-70
2023/06/29 06:02:16;;;;;;;5.63;5.33;;;;;;;16.28;100.00;97018.28;4995616;28;20221;-68
2023/06/29 06:04:43;;;;;;;5.13;4.77;;;;;;;16.27;100.00;97008.63;4993299;28;20906;-69
2023/06/29 06:07:14;;;;;;;4.10;3.90;;;;;;;16.55;100.00;97015.28;4987452;28;20197;-70
2023/06/29 06:09:41;;;;;;;5.07;4.77;;;;;;;16.50;100.00;97023.16;4991528;28;20236;-71
2023/06/29 06:12:10;;;;;;;5.77;4.70;;;;;;;16.71;100.00;97016.50;4991039;28;20197;-70
2023/06/29 06:14:37;;;;;;;4.57;4.23;;;;;;;16.72;100.00;97020.00;4991938;28;20256;-70
2023/06/29 06:17:05;;;;;;;5.57;5.13;;;;;;;16.84;100.00;97015.50;4993363;28;20223;-70
2023/06/29 06:19:34;;;;;;;4.80;4.40;;;;;;;17.07;100.00;97005.94;4994938;28;20261;-70
2023/06/29 06:22:01;;;;;;;4.80;4.40;;;;;;;17.29;100.00;97008.03;4992572;28;20239;-71
2023/06/29 06:24:29;;;;;;;4.10;3.80;;;;;;;17.39;100.00;97007.47;4989594;28;20337;-70
2023/06/29 06:26:56;;;;;;;4.60;3.80;;;;;;;17.63;100.00;96997.56;4987122;28;20665;-71
2023/06/29 06:29:24;;;;;;;4.37;4.07;;;;;;;17.54;100.00;97009.69;4994229;28;20311;-71
2023/06/29 06:31:52;;;;;;;4.77;4.30;;;;;;;17.41;100.00;97000.81;4996812;28;20209;-70
2023/06/29 06:34:19;;;;;;;4.70;4.40;;;;;;;17.52;100.00;96998.41;4996386;28;20213;-70
2023/06/29 06:36:48;;;;;;;4.73;4.43;;;;;;;17.64;100.00;97000.03;4990092;28;20314;-71
2023/06/29 06:39:16;;;;;;;4.83;4.53;;;;;;;17.58;100.00;97008.97;4995958;28;20209;-71
2023/06/29 06:41:43;;;;;;;5.37;4.87;;;;;;;17.76;100.00;97002.66;4987878;28;20271;-70
2023/06/29 06:44:11;;;;;;;4.67;4.20;;;;;;;17.91;100.00;97002.19;4994262;28;20291;-69
2023/06/29 06:46:39;;;;;;;4.43;4.17;;;;;;;18.10;100.00;97007.44;4998108;28;20235;-69
2023/06/29 06:49:06;;;;;;;4.90;4.60;;;;;;;18.04;100.00;97003.03;4994581;28;20296;-69
2023/06/29 06:51:34;;;;;;;4.73;4.33;;;;;;;18.26;100.00;97002.38;4993607;28;20229;-70
2023/06/29 06:54:03;;;;;;;6.63;5.90;;;;;;;18.15;100.00;97004.03;4993706;28;20248;-70
2023/06/29 06:56:31;;;;;;;4.50;4.20;;;;;;;18.46;100.00;96999.28;4992372;28;20232;-69
2023/06/29 06:58:58;;;;;;;4.00;3.73;;;;;;;18.56;100.00;96999.50;5000082;28;20205;-69
2023/06/29 07:01:27;;;;;;;4.40;4.00;;;;;;;18.33;100.00;96992.31;5000999;28;20224;-69
2023/06/29 07:03:54;;;;;;;4.13;3.80;;;;;;;18.57;100.00;96997.59;5001857;28;20322;-70
2023/06/29 07:06:22;;;;;;;4.63;3.40;;;;;;;18.70;100.00;96983.09;4996623;28;20220;-70
2023/06/29 07:08:50;;;;;;;3.97;3.60;;;;;;;18.85;100.00;96998.66;4995295;28;20228;-70
2023/06/29 07:11:18;;;;;;;4.40;3.30;;;;;;;18.93;100.00;96992.88;4992498;28;20302;-68
2023/06/29 07:13:46;;;;;;;3.70;3.40;;;;;;;19.13;100.00;96992.44;4993592;28;20209;-69
2023/06/29 07:16:14;;;;;;;3.70;3.50;;;;;;;19.18;99.88;96991.72;4997188;28;20256;-70
2023/06/29 07:18:47;;;;;;;3.27;3.17;;;;;;;19.28;99.96;96983.81;5001068;28;20216;-69
2023/06/29 07:21:15;;;;;;;3.10;2.97;;;;;;;19.57;98.27;96989.06;4994219;28;20339;-70
2023/06/29 07:23:44;;;;;;;3.77;3.47;;;;;;;19.81;94.30;96980.78;4990309;28;20205;-69
2023/06/29 07:26:15;;;;;;;3.10;3.00;;;;;;;19.79;94.38;96982.91;4995910;28;20297;-71
2023/06/29 07:28:43;;;;;;;3.80;3.50;;;;;;;19.68;95.72;96981.94;4996079;28;20316;-70
2023/06/29 07:31:11;;;;;;;3.03;2.83;;;;;;;19.66;93.02;96992.13;5000563;28;20295;-70
2023/06/29 07:33:39;;;;;;;3.23;2.90;;;;;;;19.82;92.51;96987.78;4999622;28;20201;-69
2023/06/29 07:36:07;;;;;;;6.40;3.40;;;;;;;19.90;93.05;96979.34;4997715;28;20257;-70
2023/06/29 07:38:35;;;;;;;4.77;3.33;;;;;;;19.88;87.09;96976.03;4989663;28;20661;-70
2023/06/29 07:41:05;;;;;;;3.47;3.27;;;;;;;19.86;89.14;96978.16;4996651;28;20360;-70
2023/06/29 07:43:32;;;;;;;3.40;3.20;;;;;;;19.97;88.41;96972.97;4993877;28;20300;-70
2023/06/29 07:46:02;;;;;;;3.97;2.97;;;;;;;20.00;88.29;96964.38;4999870;28;20228;-70
2023/06/29 07:48:29;;;;;;;3.30;3.10;;;;;;;20.04;87.42;96969.00;4994170;28;20251;-72
2023/06/29 07:50:58;;;;;;;3.73;3.37;;;;;;;20.24;88.25;96964.94;5000208;28;20235;-70
2023/06/29 07:53:25;;;;;;;4.43;3.47;;;;;;;20.60;90.74;96967.19;4997484;28;20209;-69
2023/06/29 07:55:53;;;;;;;3.83;3.00;;;;;;;20.78;85.35;96966.81;4990088;28;20275;-69
2023/06/29 07:58:20;;;;;;;4.17;2.77;;;;;;;20.89;78.56;96967.78;4993008;28;20209;-70
2023/06/29 08:00:51;;;;;;;5.13;3.20;;;;;;;20.78;76.99;96961.44;5002161;28;20706;-69
2023/06/29 08:03:20;;;;;;;3.10;2.70;;;;;;;20.91;75.42;96960.25;4998942;28;20578;-70
2023/06/29 08:05:47;;;;;;;3.00;2.70;;;;;;;21.01;69.69;96946.03;4994989;28;20241;-69
2023/06/29 08:08:18;;;;;;;3.47;2.83;;;;;;;21.20;66.01;96957.22;4991595;28;20684;-69
2023/06/29 08:10:46;;;;;;;2.83;2.63;;;;;;;21.26;66.99;96955.38;4995419;28;20217;-70
2023/06/29 08:13:13;;;;;;;2.83;2.67;;;;;;;21.40;69.04;96956.56;4995867;28;20256;-68
2023/06/29 08:15:41;;;;;;;2.93;2.63;;;;;;;21.48;69.72;96951.75;4995166;28;20654;-70
2023/06/29 08:18:09;;;;;;;3.93;2.60;;;;;;;21.56;66.89;96959.34;4996944;28;20209;-69
2023/06/29 08:20:38;;;;;;;2.57;2.33;;;;;;;21.54;65.41;96951.50;4997246;28;20311;-69
2023/06/29 08:23:06;;;;;;;8.20;3.70;;;;;;;21.84;67.78;96946.59;4990399;28;20281;-71
2023/06/29 08:25:34;;;;;;;2.87;2.67;;;;;;;21.64;62.02;96953.50;4994636;28;20550;-69
2023/06/29 08:28:01;;;;;;;3.63;2.97;;;;;;;21.85;65.13;96956.31;4986117;28;20323;-70
2023/06/29 08:30:29;;;;;;;5.47;3.20;;;;;;;21.69;66.44;96958.13;4993545;28;20813;-70
2023/06/29 08:32:56;;;;;;;2.77;2.57;;;;;;;21.92;65.62;96943.38;4996632;28;20232;-70
2023/06/29 08:35:24;;;;;;;2.60;2.50;;;;;;;21.95;61.63;96945.56;4996369;28;20682;-70
2023/06/29 08:37:53;;;;;;;2.93;2.67;;;;;;;22.02;59.32;96939.94;4991314;28;21203;-69
2023/06/29 08:40:21;;;;;;;2.43;2.17;;;;;;;21.91;57.11;96933.69;4990528;28;20647;-69
2023/06/29 08:42:50;;;;;;;3.00;2.80;;;;;;;22.06;60.01;96932.91;4988426;28;20208;-69
2023/06/29 08:45:18;;;;;;;2.53;2.33;;;;;;;22.23;60.55;96929.19;4996552;28;20612;-66
2023/06/29 08:47:49;;;;;;;2.67;2.47;;;;;;;22.32;56.08;96932.19;4997456;28;20205;-66
2023/06/29 08:50:18;;;;;;;2.37;2.17;;;;;;;22.44;56.00;96937.34;4997229;28;20229;-69
2023/06/29 08:52:45;;;;;;;2.43;2.30;;;;;;;22.46;56.86;96927.91;4987974;28;20209;-67
2023/06/29 08:55:14;;;;;;;5.27;2.63;;;;;;;22.66;56.80;96916.31;4985538;28;20210;-69
2023/06/29 08:57:42;;;;;;;5.20;3.90;;;;;;;22.78;56.39;96928.78;4994723;28;20224;-68
2023/06/29 09:00:11;;;;;;;5.57;5.17;;;;;;;22.76;58.63;96918.22;4997276;28;20226;-68
2023/06/29 09:02:39;;;;;;;3.03;2.67;;;;;;;22.83;53.88;96918.75;4999862;28;20244;-67
2023/06/29 09:05:07;;;;;;;2.90;2.70;;;;;;;22.68;54.13;96905.28;4991628;28;20221;-67
2023/06/29 09:07:37;;;;;;;2.57;2.37;;;;;;;22.92;54.21;96913.66;4994053;28;20747;-68
2023/06/29 09:10:06;;;;;;;2.50;2.30;;;;;;;22.97;53.93;96918.25;4996666;28;20321;-69
2023/06/29 09:12:36;;;;;;;3.60;2.60;;;;;;;22.79;53.78;96920.38;4982891;28;20206;-69
2023/06/29 09:15:09;;;;;;;2.57;2.30;;;;;;;22.92;54.68;96913.66;4996908;28;20209;-71
2023/06/29 09:17:36;;;;;;;2.90;2.70;;;;;;;23.08;52.25;96914.44;4996344;28;20225;-70
2023/06/29 09:20:13;;;;;;;2.30;2.10;;;;;;;23.18;53.43;96904.69;4991353;28;20217;-71
2023/06/29 09:22:41;;;;;;;2.63;2.43;;;;;;;23.22;52.71;96905.78;4991228;28;20304;-69
2023/06/29 09:25:10;;;;;;;2.60;2.40;;;;;;;23.36;53.64;96906.88;4995254;28;20292;-69
2023/06/29 09:28:06;;;;;;;2.90;2.70;;;;;;;23.11;50.33;96907.69;4986268;28;20210;-67
2023/06/29 09:30:36;;;;;;;4.50;3.20;;;;;;;23.04;53.40;96905.25;4989950;28;20272;-68
2023/06/29 09:33:08;;;;;;;7.23;5.50;;;;;;;23.23;54.32;96896.56;4994390;28;20961;-68
2023/06/29 09:35:37;;;;;;;3.23;3.03;;;;;;;23.24;51.24;96895.50;4993353;28;20217;-70
2023/06/29 09:38:05;;;;;;;2.50;2.30;;;;;;;23.39;51.34;96900.09;4992296;28;20244;-68
2023/06/29 09:40:33;;;;;;;3.83;2.50;;;;;;;23.52;49.41;96896.00;4986771;28;20324;-68
2023/06/29 09:43:05;;;;;;;4.10;2.30;;;;;;;23.59;52.66;96890.31;4986708;28;20210;-68
2023/06/29 09:45:34;;;;;;;3.50;2.70;;;;;;;23.66;51.53;96890.81;4996422;28;20217;-68
2023/06/29 09:48:01;;;;;;;2.97;2.70;;;;;;;23.62;51.12;96887.84;4995039;28;20228;-68
2023/06/29 09:50:33;;;;;;;2.27;2.13;;;;;;;23.68;49.44;96888.66;4993630;28;20332;-69
2023/06/29 09:53:07;;;;;;;2.53;2.33;;;;;;;23.64;49.39;96880.28;4990542;28;20710;-68
2023/06/29 09:55:37;;;;;;;2.33;2.13;;;;;;;23.65;50.88;96881.88;4992692;28;20203;-69
2023/06/29 09:58:06;;;;;;;3.20;2.20;;;;;;;23.69;50.20;96880.28;4986175;28;20221;-69
2023/06/29 10:00:37;;;;;;;4.10;2.47;;;;;;;23.84;51.89;96875.88;4996359;28;20295;-67
2023/06/29 10:03:05;;;;;;;2.57;2.37;;;;;;;24.04;49.01;96876.88;4990364;28;20209;-69
2023/06/29 10:05:32;;;;;;;2.13;2.03;;;;;;;24.10;48.47;96864.97;4993731;28;20311;-68
2023/06/29 10:08:02;;;;;;;2.40;2.10;;;;;;;24.17;49.42;96859.22;4993605;28;20224;-68
2023/06/29 10:10:32;;;;;;;2.73;2.53;;;;;;;24.24;50.51;96859.72;4991602;28;20735;-68
2023/06/29 10:13:00;;;;;;;3.60;3.30;;;;;;;23.90;48.81;96858.53;4987043;28;20236;-68
2023/06/29 10:15:28;;;;;;;2.63;2.43;;;;;;;23.95;49.38;96863.13;4996439;28;20275;-68
2023/06/29 10:18:01;;;;;;;4.50;2.37;;;;;;;24.17;49.57;96860.03;4991503;28;20279;-68
2023/06/29 10:20:31;;;;;;;2.40;2.30;;;;;;;24.12;49.46;96854.66;4994574;28;20630;-68
2023/06/29 10:23:02;;;;;;;2.37;2.27;;;;;;;23.87;46.59;96850.97;4997092;28;20837;-68
2023/06/29 10:25:32;;;;;;;4.73;2.60;;;;;;;23.76;46.42;96857.53;4991842;28;20291;-67
2023/06/29 10:28:00;;;;;;;2.63;2.47;;;;;;;23.61;47.15;96850.28;4987574;28;20693;-68
2023/06/29 10:30:28;;;;;;;4.57;2.80;;;;;;;23.84;49.45;96844.22;4996869;28;20782;-67
2023/06/29 10:32:55;;;;;;;4.47;2.60;;;;;;;24.07;48.32;96849.28;4998792;28;20232;-68
2023/06/29 10:35:25;;;;;;;3.30;2.67;;;;;;;24.18;45.75;96856.25;4996125;28;20691;-67
2023/06/29 10:37:57;;;;;;;2.70;2.10;;;;;;;24.18;46.23;96852.72;4982506;28;20217;-67
2023/06/29 10:40:25;;;;;;;2.53;2.43;;;;;;;24.27;47.41;96851.84;4981420;28;20299;-65
2023/06/29 10:42:54;;;;;;;2.53;2.43;;;;;;;24.02;45.80;96841.16;4995730;28;20198;-65
2023/06/29 10:45:35;;;;;;;3.23;2.40;;;;;;;24.13;50.90;96853.56;4996709;28;20204;-67
2023/06/29 10:48:13;;;;;;;2.47;2.37;;;;;;;24.18;46.04;96848.13;4994577;28;20200;-66
2023/06/29 10:51:02;;;;;;;4.20;2.90;;;;;;;24.28;48.52;96845.34;4989286;28;20237;-65
2023/06/29 10:53:29;;;;;;;2.53;2.43;;;;;;;24.33;46.54;96839.09;4988825;28;20209;-66
2023/06/29 10:55:57;;;;;;;2.57;2.20;;;;;;;24.40;47.58;96834.16;4987384;28;20282;-68
2023/06/29 10:58:28;;;;;;;2.60;2.50;;;;;;;24.57;46.26;96844.59;4986036;28;20322;-67
2023/06/29 11:00:56;;;;;;;3.90;2.80;;;;;;;24.44;43.70;96834.41;4995830;28;20220;-67
2023/06/29 11:03:24;;;;;;;4.07;2.60;;;;;;;24.68;48.83;96825.53;4996961;28;20228;-67
2023/06/29 11:05:53;;;;;;;4.00;2.30;;;;;;;24.73;43.96;96824.69;4986212;28;21461;-67
2023/06/29 11:08:23;;;;;;;3.37;2.77;;;;;;;24.83;45.40;96822.75;4991301;28;20210;-67
2023/06/29 11:10:50;;;;;;;2.97;2.77;;;;;;;24.81;43.88;96827.63;4987969;28;20225;-67
2023/06/29 11:13:19;;;;;;;2.60;2.40;;;;;;;24.93;43.99;96826.44;4991350;28;20201;-67
2023/06/29 11:15:52;;;;;;;2.33;2.13;;;;;;;25.12;44.05;96818.38;4996107;28;20241;-66
2023/06/29 11:18:20;;;;;;;3.77;2.53;;;;;;;25.17;44.49;96823.75;4994797;28;20229;-68
2023/06/29 11:20:48;;;;;;;2.43;2.33;;;;;;;25.05;41.27;96813.28;4991320;28;20229;-66
2023/06/29 11:23:16;;;;;;;2.83;2.60;;;;;;;24.84;42.46;96809.97;4987790;28;20620;-67
2023/06/29 11:25:45;;;;;;;2.70;2.50;;;;;;;24.93;43.13;96807.47;4985199;28;20213;-69
2023/06/29 11:28:15;;;;;;;4.57;2.67;;;;;;;25.11;45.59;96800.50;4993505;28;20279;-68
2023/06/29 11:30:43;;;;;;;2.63;2.13;;;;;;;25.23;47.10;96802.81;4996900;28;20906;-68
2023/06/29 11:33:13;;;;;;;3.57;2.33;;;;;;;25.18;42.54;96797.44;4987384;28;20205;-67
2023/06/29 11:36:01;;;;;;;3.20;2.40;;;;;;;25.37;44.94;96797.47;4997823;28;20209;-67